sensor_id;sensor_type;location;lat;lon;timestamp;temperature;humidity
67275;DHT22;55463;52.324;5.122;2023-03-04T00:00:27;5.94;88.76
67275;DHT22;55463;52.324;5.122;2023-03-04T00:02:55;5.99;88.22
67275;DHT22;55463;52.324;5.122;2023-03-04T00:05:20;5.96;87.79
67275;DHT22;55463;52.324;5.122;2023-03-04T00:07:46;6.09;87.34
67275;DHT22;55463;52.324;5.122;2023-03-04T00:10:15;5.96;87.20
67275;DHT22;55463;52.324;5.122;2023-03-04T00:12:40;5.96;86.98
67275;DHT22;55463;52.324;5.122;2023-03-04T00:15:06;5.90;87.02
67275;DHT22;55463;52.324;5.122;2023-03-04T00:17:35;5.93;88.58
67275;DHT22;55463;52.324;5.122;2023-03-04T00:20:00;5.87;89.23
67275;DHT22;55463;52.324;5.122;2023-03-04T00:22:26;5.77;89.83
67275;DHT22;55463;52.324;5.122;2023-03-04T00:24:51;6.07;88.92
67275;DHT22;55463;52.324;5.122;2023-03-04T00:27:20;5.85;88.27
67275;DHT22;55463;52.324;5.122;2023-03-04T00:29:46;5.89;88.01
67275;DHT22;55463;52.324;5.122;2023-03-04T00:32:11;5.93;87.65
67275;DHT22;55463;52.324;5.122;2023-03-04T00:34:37;5.80;88.83
67275;DHT22;55463;52.324;5.122;2023-03-04T00:37:04;5.97;87.92
67275;DHT22;55463;52.324;5.122;2023-03-04T00:39:30;5.86;88.37
67275;DHT22;55463;52.324;5.122;2023-03-04T00:41:55;5.85;88.18
67275;DHT22;55463;52.324;5.122;2023-03-04T00:44:21;5.79;88.73
67275;DHT22;55463;52.324;5.122;2023-03-04T00:46:46;5.90;88.91
67275;DHT22;55463;52.324;5.122;2023-03-04T00:49:12;6.02;87.01
67275;DHT22;55463;52.324;5.122;2023-03-04T00:51:40;5.85;87.82
67275;DHT22;55463;52.324;5.122;2023-03-04T00:54:06;5.90;87.57
67275;DHT22;55463;52.324;5.122;2023-03-04T00:56:31;5.80;87.24
67275;DHT22;55463;52.324;5.122;2023-03-04T00:58:57;5.82;87.04
67275;DHT22;55463;52.324;5.122;2023-03-04T01:01:22;5.79;87.69
67275;DHT22;55463;52.324;5.122;2023-03-04T01:03:48;5.79;88.20
67275;DHT22;55463;52.324;5.122;2023-03-04T01:06:14;5.80;88.25
67275;DHT22;55463;52.324;5.122;2023-03-04T01:08:39;5.80;88.20
67275;DHT22;55463;52.324;5.122;2023-03-04T01:11:05;5.79;86.31
67275;DHT22;55463;52.324;5.122;2023-03-04T01:13:31;5.77;86.20
67275;DHT22;55463;52.324;5.122;2023-03-04T01:15:59;5.83;86.36
67275;DHT22;55463;52.324;5.122;2023-03-04T01:18:26;5.83;86.61
67275;DHT22;55463;52.324;5.122;2023-03-04T01:20:51;5.79;86.86
67275;DHT22;55463;52.324;5.122;2023-03-04T01:23:17;5.85;86.42
67275;DHT22;55463;52.324;5.122;2023-03-04T01:25:42;5.75;85.11
67275;DHT22;55463;52.324;5.122;2023-03-04T01:28:08;5.76;84.84
67275;DHT22;55463;52.324;5.122;2023-03-04T01:30:36;5.79;85.43
67275;DHT22;55463;52.324;5.122;2023-03-04T01:33:01;5.76;85.67
67275;DHT22;55463;52.324;5.122;2023-03-04T01:35:27;5.79;86.23
67275;DHT22;55463;52.324;5.122;2023-03-04T01:37:52;5.79;86.57
67275;DHT22;55463;52.324;5.122;2023-03-04T01:40:18;5.85;86.21
67275;DHT22;55463;52.324;5.122;2023-03-04T01:42:44;5.82;85.76
67275;DHT22;55463;52.324;5.122;2023-03-04T01:45:15;5.80;85.87
67275;DHT22;55463;52.324;5.122;2023-03-04T01:47:43;5.77;86.97
67275;DHT22;55463;52.324;5.122;2023-03-04T01:50:31;5.70;86.71
67275;DHT22;55463;52.324;5.122;2023-03-04T01:52:57;5.72;86.74
67275;DHT22;55463;52.324;5.122;2023-03-04T01:55:23;5.69;87.51
67275;DHT22;55463;52.324;5.122;2023-03-04T01:57:50;5.69;87.71
67275;DHT22;55463;52.324;5.122;2023-03-04T02:00:17;5.63;87.65
67275;DHT22;55463;52.324;5.122;2023-03-04T02:02:46;5.73;87.12
67275;DHT22;55463;52.324;5.122;2023-03-04T02:05:12;5.72;86.48
67275;DHT22;55463;52.324;5.122;2023-03-04T02:07:38;5.69;86.00
67275;DHT22;55463;52.324;5.122;2023-03-04T02:10:04;5.70;85.52
67275;DHT22;55463;52.324;5.122;2023-03-04T02:12:30;5.72;85.42
67275;DHT22;55463;52.324;5.122;2023-03-04T02:14:55;5.68;85.50
67275;DHT22;55463;52.324;5.122;2023-03-04T02:17:27;5.73;85.77
67275;DHT22;55463;52.324;5.122;2023-03-04T02:22:37;5.73;86.42
67275;DHT22;55463;52.324;5.122;2023-03-04T02:25:11;5.76;86.51
67275;DHT22;55463;52.324;5.122;2023-03-04T02:27:38;5.82;86.57
67275;DHT22;55463;52.324;5.122;2023-03-04T02:30:04;5.86;86.56
67275;DHT22;55463;52.324;5.122;2023-03-04T02:32:32;5.90;86.07
67275;DHT22;55463;52.324;5.122;2023-03-04T02:35:00;5.77;86.33
67275;DHT22;55463;52.324;5.122;2023-03-04T02:37:29;5.72;87.22
67275;DHT22;55463;52.324;5.122;2023-03-04T02:39:54;5.70;87.53
67275;DHT22;55463;52.324;5.122;2023-03-04T02:42:22;5.68;87.68
67275;DHT22;55463;52.324;5.122;2023-03-04T02:44:48;5.63;88.32
67275;DHT22;55463;52.324;5.122;2023-03-04T02:47:16;5.68;87.12
67275;DHT22;55463;52.324;5.122;2023-03-04T02:49:45;5.65;87.03
67275;DHT22;55463;52.324;5.122;2023-03-04T02:52:20;5.65;87.24
67275;DHT22;55463;52.324;5.122;2023-03-04T02:54:46;5.62;87.44
67275;DHT22;55463;52.324;5.122;2023-03-04T02:57:13;5.65;87.68
67275;DHT22;55463;52.324;5.122;2023-03-04T02:59:39;5.56;90.70
67275;DHT22;55463;52.324;5.122;2023-03-04T03:02:06;5.58;88.10
67275;DHT22;55463;52.324;5.122;2023-03-04T03:04:32;5.59;88.16
67275;DHT22;55463;52.324;5.122;2023-03-04T03:06:58;5.54;88.16
67275;DHT22;55463;52.324;5.122;2023-03-04T03:09:23;5.52;88.42
67275;DHT22;55463;52.324;5.122;2023-03-04T03:11:49;5.54;88.63
67275;DHT22;55463;52.324;5.122;2023-03-04T03:14:15;5.58;89.07
67275;DHT22;55463;52.324;5.122;2023-03-04T03:16:40;5.70;88.85
67275;DHT22;55463;52.324;5.122;2023-03-04T03:19:06;5.56;89.19
67275;DHT22;55463;52.324;5.122;2023-03-04T03:21:31;5.60;89.26
67275;DHT22;55463;52.324;5.122;2023-03-04T03:23:57;5.58;89.46
67275;DHT22;55463;52.324;5.122;2023-03-04T03:26:23;5.54;89.51
67275;DHT22;55463;52.324;5.122;2023-03-04T03:28:50;5.62;89.25
67275;DHT22;55463;52.324;5.122;2023-03-04T03:31:16;5.51;89.72
67275;DHT22;55463;52.324;5.122;2023-03-04T03:33:44;5.49;90.14
67275;DHT22;55463;52.324;5.122;2023-03-04T03:36:12;5.51;90.50
67275;DHT22;55463;52.324;5.122;2023-03-04T03:38:40;5.44;90.82
67275;DHT22;55463;52.324;5.122;2023-03-04T03:41:05;5.41;90.77
67275;DHT22;55463;52.324;5.122;2023-03-04T03:43:31;5.41;91.08
67275;DHT22;55463;52.324;5.122;2023-03-04T03:45:56;5.51;90.74
67275;DHT22;55463;52.324;5.122;2023-03-04T03:48:22;5.56;90.38
67275;DHT22;55463;52.324;5.122;2023-03-04T03:50:47;5.56;90.50
67275;DHT22;55463;52.324;5.122;2023-03-04T03:53:13;5.47;91.02
67275;DHT22;55463;52.324;5.122;2023-03-04T03:55:38;5.45;91.57
67275;DHT22;55463;52.324;5.122;2023-03-04T03:58:04;5.41;91.28
67275;DHT22;55463;52.324;5.122;2023-03-04T04:00:30;5.40;91.37
67275;DHT22;55463;52.324;5.122;2023-03-04T04:02:57;5.40;91.61
67275;DHT22;55463;52.324;5.122;2023-03-04T04:05:22;5.35;91.91
67275;DHT22;55463;52.324;5.122;2023-03-04T04:07:48;5.40;92.09
67275;DHT22;55463;52.324;5.122;2023-03-04T04:10:13;5.38;92.01
67275;DHT22;55463;52.324;5.122;2023-03-04T04:12:39;5.38;91.39
67275;DHT22;55463;52.324;5.122;2023-03-04T04:15:05;5.45;91.40
67275;DHT22;55463;52.324;5.122;2023-03-04T04:17:30;5.54;91.15
67275;DHT22;55463;52.324;5.122;2023-03-04T04:19:56;5.48;92.95
67275;DHT22;55463;52.324;5.122;2023-03-04T04:22:21;5.47;91.31
67275;DHT22;55463;52.324;5.122;2023-03-04T04:24:47;5.62;91.11
67275;DHT22;55463;52.324;5.122;2023-03-04T04:27:13;5.45;91.51
67275;DHT22;55463;52.324;5.122;2023-03-04T04:29:39;5.44;91.63
67275;DHT22;55463;52.324;5.122;2023-03-04T04:32:04;5.37;92.07
67275;DHT22;55463;52.324;5.122;2023-03-04T04:34:30;5.37;91.73
67275;DHT22;55463;52.324;5.122;2023-03-04T04:36:55;5.41;91.40
67275;DHT22;55463;52.324;5.122;2023-03-04T04:39:21;5.37;91.55
67275;DHT22;55463;52.324;5.122;2023-03-04T04:41:47;5.42;91.10
67275;DHT22;55463;52.324;5.122;2023-03-04T04:44:13;5.40;93.25
67275;DHT22;55463;52.324;5.122;2023-03-04T04:46:39;5.34;93.63
67275;DHT22;55463;52.324;5.122;2023-03-04T04:49:06;5.40;93.06
67275;DHT22;55463;52.324;5.122;2023-03-04T04:51:32;5.35;91.41
67275;DHT22;55463;52.324;5.122;2023-03-04T04:53:59;5.37;91.34
67275;DHT22;55463;52.324;5.122;2023-03-04T04:56:25;5.34;91.50
67275;DHT22;55463;52.324;5.122;2023-03-04T04:58:52;5.34;91.79
67275;DHT22;55463;52.324;5.122;2023-03-04T05:01:18;5.35;91.80
67275;DHT22;55463;52.324;5.122;2023-03-04T05:03:44;5.35;91.74
67275;DHT22;55463;52.324;5.122;2023-03-04T05:06:11;5.35;92.20
67275;DHT22;55463;52.324;5.122;2023-03-04T05:08:36;5.42;91.92
67275;DHT22;55463;52.324;5.122;2023-03-04T05:11:02;5.38;92.35
67275;DHT22;55463;52.324;5.122;2023-03-04T05:13:28;5.37;92.46
67275;DHT22;55463;52.324;5.122;2023-03-04T05:15:55;5.37;92.39
67275;DHT22;55463;52.324;5.122;2023-03-04T05:18:22;5.38;92.14
67275;DHT22;55463;52.324;5.122;2023-03-04T05:20:58;5.38;92.02
67275;DHT22;55463;52.324;5.122;2023-03-04T05:23:29;5.42;92.24
67275;DHT22;55463;52.324;5.122;2023-03-04T05:25:55;5.37;92.38
67275;DHT22;55463;52.324;5.122;2023-03-04T05:28:21;5.35;92.34
67275;DHT22;55463;52.324;5.122;2023-03-04T05:30:46;5.37;91.76
67275;DHT22;55463;52.324;5.122;2023-03-04T05:33:14;5.37;91.58
67275;DHT22;55463;52.324;5.122;2023-03-04T05:35:40;5.42;90.93
67275;DHT22;55463;52.324;5.122;2023-03-04T05:38:07;5.42;91.34
67275;DHT22;55463;52.324;5.122;2023-03-04T05:40:34;5.34;91.96
67275;DHT22;55463;52.324;5.122;2023-03-04T05:42:59;5.31;92.69
67275;DHT22;55463;52.324;5.122;2023-03-04T05:45:25;5.37;93.11
67275;DHT22;55463;52.324;5.122;2023-03-04T05:48:16;5.30;93.41
67275;DHT22;55463;52.324;5.122;2023-03-04T05:50:41;5.27;93.95
67275;DHT22;55463;52.324;5.122;2023-03-04T05:53:07;5.30;94.12
67275;DHT22;55463;52.324;5.122;2023-03-04T05:55:32;5.27;94.38
67275;DHT22;55463;52.324;5.122;2023-03-04T05:58:01;5.30;94.48
67275;DHT22;55463;52.324;5.122;2023-03-04T06:00:26;5.30;94.51
67275;DHT22;55463;52.324;5.122;2023-03-04T06:02:52;5.27;94.48
67275;DHT22;55463;52.324;5.122;2023-03-04T06:05:18;5.26;94.39
67275;DHT22;55463;52.324;5.122;2023-03-04T06:07:44;5.20;94.06
67275;DHT22;55463;52.324;5.122;2023-03-04T06:10:12;5.20;93.66
67275;DHT22;55463;52.324;5.122;2023-03-04T06:12:37;5.23;93.12
67275;DHT22;55463;52.324;5.122;2023-03-04T06:15:03;5.20;93.01
67275;DHT22;55463;52.324;5.122;2023-03-04T06:17:30;5.13;93.10
67275;DHT22;55463;52.324;5.122;2023-03-04T06:20:03;5.14;93.12
67275;DHT22;55463;52.324;5.122;2023-03-04T06:22:30;5.13;93.27
67275;DHT22;55463;52.324;5.122;2023-03-04T06:24:56;5.13;93.37
67275;DHT22;55463;52.324;5.122;2023-03-04T06:27:21;5.16;93.58
67275;DHT22;55463;52.324;5.122;2023-03-04T06:29:47;5.27;93.46
67275;DHT22;55463;52.324;5.122;2023-03-04T06:32:12;5.30;93.40
67275;DHT22;55463;52.324;5.122;2023-03-04T06:34:38;5.37;95.33
67275;DHT22;55463;52.324;5.122;2023-03-04T06:37:03;5.21;96.51
67275;DHT22;55463;52.324;5.122;2023-03-04T06:39:29;5.21;96.04
67275;DHT22;55463;52.324;5.122;2023-03-04T06:41:54;5.16;95.83
67275;DHT22;55463;52.324;5.122;2023-03-04T06:44:20;5.17;95.64
67275;DHT22;55463;52.324;5.122;2023-03-04T06:46:45;5.13;95.63
67275;DHT22;55463;52.324;5.122;2023-03-04T06:49:11;5.19;95.69
67275;DHT22;55463;52.324;5.122;2023-03-04T06:51:36;5.26;95.45
67275;DHT22;55463;52.324;5.122;2023-03-04T06:54:02;5.28;95.37
67275;DHT22;55463;52.324;5.122;2023-03-04T06:56:27;5.38;95.26
67275;DHT22;55463;52.324;5.122;2023-03-04T06:58:53;5.40;95.31
67275;DHT22;55463;52.324;5.122;2023-03-04T07:01:20;5.44;94.88
67275;DHT22;55463;52.324;5.122;2023-03-04T07:03:47;5.52;94.70
67275;DHT22;55463;52.324;5.122;2023-03-04T07:06:15;5.55;94.43
67275;DHT22;55463;52.324;5.122;2023-03-04T07:08:41;5.59;94.50
67275;DHT22;55463;52.324;5.122;2023-03-04T07:11:08;5.59;94.66
67275;DHT22;55463;52.324;5.122;2023-03-04T07:13:34;5.62;94.69
67275;DHT22;55463;52.324;5.122;2023-03-04T07:16:05;5.69;94.68
67275;DHT22;55463;52.324;5.122;2023-03-04T07:18:31;5.68;94.48
67275;DHT22;55463;52.324;5.122;2023-03-04T07:20:56;5.76;94.30
67275;DHT22;55463;52.324;5.122;2023-03-04T07:23:22;5.73;94.15
67275;DHT22;55463;52.324;5.122;2023-03-04T07:25:48;5.75;94.15
67275;DHT22;55463;52.324;5.122;2023-03-04T07:28:14;5.73;94.37
67275;DHT22;55463;52.324;5.122;2023-03-04T07:30:40;5.77;95.16
67275;DHT22;55463;52.324;5.122;2023-03-04T07:33:06;5.85;94.11
67275;DHT22;55463;52.324;5.122;2023-03-04T07:35:31;5.96;93.62
67275;DHT22;55463;52.324;5.122;2023-03-04T07:37:56;6.02;93.41
67275;DHT22;55463;52.324;5.122;2023-03-04T07:40:22;6.03;93.63
67275;DHT22;55463;52.324;5.122;2023-03-04T07:42:51;6.10;93.25
67275;DHT22;55463;52.324;5.122;2023-03-04T07:45:17;6.09;93.86
67275;DHT22;55463;52.324;5.122;2023-03-04T07:47:43;6.03;94.45
67275;DHT22;55463;52.324;5.122;2023-03-04T07:50:09;6.03;94.45
67275;DHT22;55463;52.324;5.122;2023-03-04T07:52:39;6.03;94.50
67275;DHT22;55463;52.324;5.122;2023-03-04T07:55:05;6.14;94.20
67275;DHT22;55463;52.324;5.122;2023-03-04T07:57:30;6.35;93.83
67275;DHT22;55463;52.324;5.122;2023-03-04T07:59:56;6.42;93.42
67275;DHT22;55463;52.324;5.122;2023-03-04T08:02:21;6.46;93.21
67275;DHT22;55463;52.324;5.122;2023-03-04T08:04:47;6.49;92.94
67275;DHT22;55463;52.324;5.122;2023-03-04T08:07:12;6.55;92.83
67275;DHT22;55463;52.324;5.122;2023-03-04T08:09:37;6.65;92.44
67275;DHT22;55463;52.324;5.122;2023-03-04T08:12:03;6.65;92.26
67275;DHT22;55463;52.324;5.122;2023-03-04T08:14:28;6.62;92.26
67275;DHT22;55463;52.324;5.122;2023-03-04T08:16:54;6.62;92.53
67275;DHT22;55463;52.324;5.122;2023-03-04T08:19:21;6.72;92.45
67275;DHT22;55463;52.324;5.122;2023-03-04T08:21:46;6.80;92.59
67275;DHT22;55463;52.324;5.122;2023-03-04T08:24:12;6.90;92.50
67275;DHT22;55463;52.324;5.122;2023-03-04T08:26:43;6.99;92.62
67275;DHT22;55463;52.324;5.122;2023-03-04T08:29:11;7.04;92.53
67275;DHT22;55463;52.324;5.122;2023-03-04T08:31:36;7.14;92.44
67275;DHT22;55463;52.324;5.122;2023-03-04T08:34:04;7.22;92.53
67275;DHT22;55463;52.324;5.122;2023-03-04T08:36:29;7.44;92.31
67275;DHT22;55463;52.324;5.122;2023-03-04T08:38:55;7.45;92.30
67275;DHT22;55463;52.324;5.122;2023-03-04T08:41:20;7.51;92.11
67275;DHT22;55463;52.324;5.122;2023-03-04T08:43:49;7.55;92.15
67275;DHT22;55463;52.324;5.122;2023-03-04T08:46:15;7.39;92.75
67275;DHT22;55463;52.324;5.122;2023-03-04T08:48:40;7.44;97.22
67275;DHT22;55463;52.324;5.122;2023-03-04T08:51:11;7.48;97.12
67275;DHT22;55463;52.324;5.122;2023-03-04T08:53:37;7.47;94.30
67275;DHT22;55463;52.324;5.122;2023-03-04T08:56:06;7.66;93.82
67275;DHT22;55463;52.324;5.122;2023-03-04T08:58:32;7.72;93.33
67275;DHT22;55463;52.324;5.122;2023-03-04T09:00:59;7.82;93.11
67275;DHT22;55463;52.324;5.122;2023-03-04T09:03:26;8.01;92.29
67275;DHT22;55463;52.324;5.122;2023-03-04T09:05:51;8.10;91.75
67275;DHT22;55463;52.324;5.122;2023-03-04T09:08:17;8.18;91.24
67275;DHT22;55463;52.324;5.122;2023-03-04T09:10:44;8.22;91.20
67275;DHT22;55463;52.324;5.122;2023-03-04T09:13:10;8.29;90.95
67275;DHT22;55463;52.324;5.122;2023-03-04T09:15:37;8.28;90.97
67275;DHT22;55463;52.324;5.122;2023-03-04T09:18:04;8.20;91.05
67275;DHT22;55463;52.324;5.122;2023-03-04T09:20:33;7.67;99.60
67275;DHT22;55463;52.324;5.122;2023-03-04T09:23:02;7.51;99.99
67275;DHT22;55463;52.324;5.122;2023-03-04T09:25:53;7.36;99.38
67275;DHT22;55463;52.324;5.122;2023-03-04T09:28:19;7.32;98.73
67275;DHT22;55463;52.324;5.122;2023-03-04T09:30:44;7.35;96.62
67275;DHT22;55463;52.324;5.122;2023-03-04T09:33:10;7.36;96.89
67275;DHT22;55463;52.324;5.122;2023-03-04T09:35:36;7.56;96.28
67275;DHT22;55463;52.324;5.122;2023-03-04T09:38:02;7.72;95.60
67275;DHT22;55463;52.324;5.122;2023-03-04T09:40:41;8.04;94.99
67275;DHT22;55463;52.324;5.122;2023-03-04T09:43:21;8.21;93.55
67275;DHT22;55463;52.324;5.122;2023-03-04T09:45:58;8.35;91.95
67275;DHT22;55463;52.324;5.122;2023-03-04T09:48:27;8.50;91.61
67275;DHT22;55463;52.324;5.122;2023-03-04T09:54:26;8.55;89.58
67275;DHT22;55463;52.324;5.122;2023-03-04T10:00:06;7.93;95.18
67275;DHT22;55463;52.324;5.122;2023-03-04T10:05:24;7.49;99.10
67275;DHT22;55463;52.324;5.122;2023-03-04T10:08:12;7.25;99.99
67275;DHT22;55463;52.324;5.122;2023-03-04T10:14:51;7.13;99.99
67275;DHT22;55463;52.324;5.122;2023-03-04T10:17:32;7.31;99.99
67275;DHT22;55463;52.324;5.122;2023-03-04T10:22:34;7.11;99.99
67275;DHT22;55463;52.324;5.122;2023-03-04T10:27:42;7.28;99.99
67275;DHT22;55463;52.324;5.122;2023-03-04T10:30:22;7.35;99.99
67275;DHT22;55463;52.324;5.122;2023-03-04T10:32:54;7.52;99.99
67275;DHT22;55463;52.324;5.122;2023-03-04T10:35:22;7.83;99.99
67275;DHT22;55463;52.324;5.122;2023-03-04T10:37:51;8.22;99.99
67275;DHT22;55463;52.324;5.122;2023-03-04T10:40:26;8.57;99.37
67275;DHT22;55463;52.324;5.122;2023-03-04T10:42:52;8.42;98.81
67275;DHT22;55463;52.324;5.122;2023-03-04T10:45:24;7.80;99.99
67275;DHT22;55463;52.324;5.122;2023-03-04T10:47:54;7.47;99.99
67275;DHT22;55463;52.324;5.122;2023-03-04T10:50:25;7.22;99.99
67275;DHT22;55463;52.324;5.122;2023-03-04T10:52:53;7.10;99.99
67275;DHT22;55463;52.324;5.122;2023-03-04T10:57:54;7.28;99.99
67275;DHT22;55463;52.324;5.122;2023-03-04T11:02:51;7.38;99.99
67275;DHT22;55463;52.324;5.122;2023-03-04T11:05:22;7.51;99.99
67275;DHT22;55463;52.324;5.122;2023-03-04T11:07:51;7.59;99.99
67275;DHT22;55463;52.324;5.122;2023-03-04T11:10:20;7.70;99.99
67275;DHT22;55463;52.324;5.122;2023-03-04T11:15:22;7.98;99.81
67275;DHT22;55463;52.324;5.122;2023-03-04T11:18:16;8.27;99.84
67275;DHT22;55463;52.324;5.122;2023-03-04T11:20:45;8.31;99.87
67275;DHT22;55463;52.324;5.122;2023-03-04T11:23:18;8.44;99.97
67275;DHT22;55463;52.324;5.122;2023-03-04T11:25:48;8.57;99.97
67275;DHT22;55463;52.324;5.122;2023-03-04T11:28:21;8.41;99.88
67275;DHT22;55463;52.324;5.122;2023-03-04T11:30:53;7.94;99.92
67275;DHT22;55463;52.324;5.122;2023-03-04T11:33:46;7.65;99.90
67275;DHT22;55463;52.324;5.122;2023-03-04T11:39:16;7.41;99.95
67275;DHT22;55463;52.324;5.122;2023-03-04T11:41:54;7.42;99.96
67275;DHT22;55463;52.324;5.122;2023-03-04T11:44:22;7.41;99.97
67275;DHT22;55463;52.324;5.122;2023-03-04T11:50:01;7.58;99.99
67275;DHT22;55463;52.324;5.122;2023-03-04T12:03:45;8.35;99.99
67275;DHT22;55463;52.324;5.122;2023-03-04T12:19:45;8.94;88.12
67275;DHT22;55463;52.324;5.122;2023-03-04T12:22:45;9.21;87.93
67275;DHT22;55463;52.324;5.122;2023-03-04T12:25:35;9.25;87.44
67275;DHT22;55463;52.324;5.122;2023-03-04T12:38:59;7.86;89.65
67275;DHT22;55463;52.324;5.122;2023-03-04T12:41:48;7.83;89.75
67275;DHT22;55463;52.324;5.122;2023-03-04T12:44:17;7.84;89.77
67275;DHT22;55463;52.324;5.122;2023-03-04T12:49:42;8.08;89.99
67275;DHT22;55463;52.324;5.122;2023-03-04T12:52:57;8.22;88.90
67275;DHT22;55463;52.324;5.122;2023-03-04T12:55:56;8.37;88.89
67275;DHT22;55463;52.324;5.122;2023-03-04T12:58:26;8.42;88.88
67275;DHT22;55463;52.324;5.122;2023-03-04T13:01:04;8.45;88.97
67275;DHT22;55463;52.324;5.122;2023-03-04T13:03:53;8.29;88.35
67275;DHT22;55463;52.324;5.122;2023-03-04T13:11:42;8.24;87.66
67275;DHT22;55463;52.324;5.122;2023-03-04T13:16:46;7.91;88.83
67275;DHT22;55463;52.324;5.122;2023-03-04T13:19:44;7.59;89.08
67275;DHT22;55463;52.324;5.122;2023-03-04T13:24:58;7.59;89.41
67275;DHT22;55463;52.324;5.122;2023-03-04T13:27:46;7.66;90.44
67275;DHT22;55463;52.324;5.122;2023-03-04T13:38:34;8.25;87.05
67275;DHT22;55463;52.324;5.122;2023-03-04T13:42:01;8.20;86.09
67275;DHT22;55463;52.324;5.122;2023-03-04T13:47:26;8.21;83.26
67275;DHT22;55463;52.324;5.122;2023-03-04T13:50:32;8.37;83.49
67275;DHT22;55463;52.324;5.122;2023-03-04T13:58:34;8.12;83.51
67275;DHT22;55463;52.324;5.122;2023-03-04T14:01:00;7.97;83.23
67275;DHT22;55463;52.324;5.122;2023-03-04T14:03:28;7.82;84.90
67275;DHT22;55463;52.324;5.122;2023-03-04T14:06:14;7.59;89.76
67275;DHT22;55463;52.324;5.122;2023-03-04T14:08:40;7.52;91.04
67275;DHT22;55463;52.324;5.122;2023-03-04T14:11:12;7.61;87.15
67275;DHT22;55463;52.324;5.122;2023-03-04T14:13:38;7.63;87.11
67275;DHT22;55463;52.324;5.122;2023-03-04T14:16:04;7.49;87.73
67275;DHT22;55463;52.324;5.122;2023-03-04T14:18:29;7.15;90.26
67275;DHT22;55463;52.324;5.122;2023-03-04T14:20:57;7.20;90.58
67275;DHT22;55463;52.324;5.122;2023-03-04T14:23:30;7.13;90.32
67275;DHT22;55463;52.324;5.122;2023-03-04T14:26:14;7.24;89.95
67275;DHT22;55463;52.324;5.122;2023-03-04T14:28:49;7.21;90.69
67275;DHT22;55463;52.324;5.122;2023-03-04T14:31:21;7.22;89.65
67275;DHT22;55463;52.324;5.122;2023-03-04T14:33:55;7.39;89.04
67275;DHT22;55463;52.324;5.122;2023-03-04T14:36:24;7.38;89.00
67275;DHT22;55463;52.324;5.122;2023-03-04T14:38:56;7.42;88.44
67275;DHT22;55463;52.324;5.122;2023-03-04T14:41:39;7.45;88.25
67275;DHT22;55463;52.324;5.122;2023-03-04T14:44:07;7.54;88.02
67275;DHT22;55463;52.324;5.122;2023-03-04T14:46:42;7.56;88.05
67275;DHT22;55463;52.324;5.122;2023-03-04T14:49:11;7.73;88.01
67275;DHT22;55463;52.324;5.122;2023-03-04T14:51:44;7.79;87.54
67275;DHT22;55463;52.324;5.122;2023-03-04T14:54:35;7.87;86.72
67275;DHT22;55463;52.324;5.122;2023-03-04T14:57:23;8.04;86.50
67275;DHT22;55463;52.324;5.122;2023-03-04T14:59:51;8.01;86.63
67275;DHT22;55463;52.324;5.122;2023-03-04T15:02:29;7.89;86.11
67275;DHT22;55463;52.324;5.122;2023-03-04T15:05:08;7.80;86.78
67275;DHT22;55463;52.324;5.122;2023-03-04T15:07:35;7.73;87.32
67275;DHT22;55463;52.324;5.122;2023-03-04T15:10:06;7.75;87.54
67275;DHT22;55463;52.324;5.122;2023-03-04T15:12:34;7.62;87.78
67275;DHT22;55463;52.324;5.122;2023-03-04T15:15:04;7.56;87.78
67275;DHT22;55463;52.324;5.122;2023-03-04T15:17:57;7.49;88.20
67275;DHT22;55463;52.324;5.122;2023-03-04T15:20:28;7.51;87.66
67275;DHT22;55463;52.324;5.122;2023-03-04T15:25:19;7.44;86.76
67275;DHT22;55463;52.324;5.122;2023-03-04T15:27:45;7.52;85.85
67275;DHT22;55463;52.324;5.122;2023-03-04T15:30:24;7.54;84.43
67275;DHT22;55463;52.324;5.122;2023-03-04T15:32:53;7.51;84.03
67275;DHT22;55463;52.324;5.122;2023-03-04T15:35:19;7.49;84.89
67275;DHT22;55463;52.324;5.122;2023-03-04T15:37:46;7.38;85.02
67275;DHT22;55463;52.324;5.122;2023-03-04T15:40:31;7.32;84.73
67275;DHT22;55463;52.324;5.122;2023-03-04T15:42:59;7.25;83.61
67275;DHT22;55463;52.324;5.122;2023-03-04T15:45:33;7.22;82.58
67275;DHT22;55463;52.324;5.122;2023-03-04T15:48:07;7.21;83.71
67275;DHT22;55463;52.324;5.122;2023-03-04T15:50:35;7.20;82.92
67275;DHT22;55463;52.324;5.122;2023-03-04T15:53:04;7.17;83.03
67275;DHT22;55463;52.324;5.122;2023-03-04T15:55:31;7.14;82.57
67275;DHT22;55463;52.324;5.122;2023-03-04T15:57:58;7.10;80.46
67275;DHT22;55463;52.324;5.122;2023-03-04T16:00:27;7.13;79.91
67275;DHT22;55463;52.324;5.122;2023-03-04T16:02:53;7.10;80.67
67275;DHT22;55463;52.324;5.122;2023-03-04T16:05:18;7.08;81.69
67275;DHT22;55463;52.324;5.122;2023-03-04T16:07:47;7.05;82.14
67275;DHT22;55463;52.324;5.122;2023-03-04T16:10:18;7.00;81.12
67275;DHT22;55463;52.324;5.122;2023-03-04T16:12:44;7.03;80.82
67275;DHT22;55463;52.324;5.122;2023-03-04T16:15:27;6.96;79.66
67275;DHT22;55463;52.324;5.122;2023-03-04T16:17:53;6.86;80.67
67275;DHT22;55463;52.324;5.122;2023-03-04T16:20:23;6.86;81.14
67275;DHT22;55463;52.324;5.122;2023-03-04T16:22:51;6.82;81.58
67275;DHT22;55463;52.324;5.122;2023-03-04T16:25:19;6.75;82.42
67275;DHT22;55463;52.324;5.122;2023-03-04T16:27:45;6.72;83.84
67275;DHT22;55463;52.324;5.122;2023-03-04T16:30:19;6.62;85.08
67275;DHT22;55463;52.324;5.122;2023-03-04T16:32:45;6.56;85.85
67275;DHT22;55463;52.324;5.122;2023-03-04T16:35:12;6.58;86.75
67275;DHT22;55463;52.324;5.122;2023-03-04T16:37:41;6.55;87.32
67275;DHT22;55463;52.324;5.122;2023-03-04T16:40:13;6.50;88.00
67275;DHT22;55463;52.324;5.122;2023-03-04T16:42:39;6.48;88.48
67275;DHT22;55463;52.324;5.122;2023-03-04T16:45:07;6.38;88.55
67275;DHT22;55463;52.324;5.122;2023-03-04T16:47:38;6.34;88.22
67275;DHT22;55463;52.324;5.122;2023-03-04T16:50:03;6.35;88.00
67275;DHT22;55463;52.324;5.122;2023-03-04T16:52:30;6.31;87.81
67275;DHT22;55463;52.324;5.122;2023-03-04T16:54:56;6.28;87.61
67275;DHT22;55463;52.324;5.122;2023-03-04T16:57:22;6.22;87.77
67275;DHT22;55463;52.324;5.122;2023-03-04T16:59:49;6.10;88.49
67275;DHT22;55463;52.324;5.122;2023-03-04T17:02:20;6.07;87.89
67275;DHT22;55463;52.324;5.122;2023-03-04T17:04:48;6.07;85.54
67275;DHT22;55463;52.324;5.122;2023-03-04T17:07:15;5.96;85.09
67275;DHT22;55463;52.324;5.122;2023-03-04T17:09:50;5.97;83.77
67275;DHT22;55463;52.324;5.122;2023-03-04T17:12:15;6.06;83.46
67275;DHT22;55463;52.324;5.122;2023-03-04T17:14:59;6.06;83.55
67275;DHT22;55463;52.324;5.122;2023-03-04T17:17:29;6.07;84.26
67275;DHT22;55463;52.324;5.122;2023-03-04T17:19:54;6.07;85.95
67275;DHT22;55463;52.324;5.122;2023-03-04T17:22:19;6.06;86.22
67275;DHT22;55463;52.324;5.122;2023-03-04T17:24:45;5.97;86.64
67275;DHT22;55463;52.324;5.122;2023-03-04T17:27:14;5.85;87.19
67275;DHT22;55463;52.324;5.122;2023-03-04T17:29:42;5.83;87.81
67275;DHT22;55463;52.324;5.122;2023-03-04T17:32:07;5.79;87.93
67275;DHT22;55463;52.324;5.122;2023-03-04T17:34:33;5.69;88.19
67275;DHT22;55463;52.324;5.122;2023-03-04T17:37:04;5.65;88.73
67275;DHT22;55463;52.324;5.122;2023-03-04T17:39:30;5.58;89.19